Time;durP1;ratioP1;P1;durP2;ratioP2;P2;SDS_P1;SDS_P2;PMS_P1;PMS_P2;Temp;Humidity;BMP_temperature;BMP_pressure;BME280_temperature;BME280_humidity;BME280_pressure;Samples;Min_cycle;Max_cycle;Signal;HPM_P1;HPM_P2
2024/01/09 00:00:12;;;;;;;64.93;14.30;;;;;;;-14.68;87.92;102196.41;4250305;28;21093;-71
2024/01/09 00:02:38;;;;;;;56.03;15.17;;;;;;;-14.60;87.82;102196.66;4252310;28;20225;-70
2024/01/09 00:05:05;;;;;;;61.87;15.27;;;;;;;-14.62;87.82;102190.53;4255282;28;20240;-71
2024/01/09 00:07:32;;;;;;;47.77;13.20;;;;;;;-14.50;87.51;102185.75;4255440;28;20297;-69
2024/01/09 00:09:59;;;;;;;46.03;12.77;;;;;;;-14.43;87.63;102185.97;4241886;28;20225;-71
2024/01/09 00:12:26;;;;;;;45.60;12.47;;;;;;;-14.39;87.15;102178.34;4254688;28;21587;-70
2024/01/09 00:14:52;;;;;;;55.27;14.80;;;;;;;-14.45;87.47;102172.03;4255893;28;20723;-72
2024/01/09 00:17:19;;;;;;;51.37;13.53;;;;;;;-14.54;87.43;102165.69;4256597;28;20350;-71
2024/01/09 00:19:45;;;;;;;45.00;12.47;;;;;;;-14.45;87.25;102166.84;4255948;28;20259;-69
2024/01/09 00:22:12;;;;;;;43.27;12.73;;;;;;;-14.42;87.34;102177.31;4252689;28;20244;-70
2024/01/09 00:24:38;;;;;;;53.77;13.53;;;;;;;-14.54;87.35;102181.28;4255890;28;20234;-69
2024/01/09 00:27:05;;;;;;;50.80;13.53;;;;;;;-14.52;87.46;102179.63;4238659;28;21533;-70
2024/01/09 00:29:34;;;;;;;46.90;13.63;;;;;;;-14.50;87.53;102182.28;4258226;28;20254;-71
2024/01/09 00:32:01;;;;;;;50.37;13.57;;;;;;;-14.40;87.29;102171.38;4262689;28;20312;-70
2024/01/09 00:34:28;;;;;;;54.53;14.87;;;;;;;-14.50;87.78;102174.47;4256551;28;20229;-71
2024/01/09 00:36:55;;;;;;;43.53;12.63;;;;;;;-14.52;87.84;102171.81;4263060;28;20267;-69
2024/01/09 00:39:21;;;;;;;52.33;14.07;;;;;;;-14.58;87.62;102161.22;4254781;28;20279;-70
2024/01/09 00:41:48;;;;;;;57.20;13.77;;;;;;;-14.56;87.66;102164.72;4262847;28;20358;-71
2024/01/09 00:44:14;;;;;;;48.37;13.57;;;;;;;-14.51;88.34;102167.50;4264592;28;20245;-70
2024/01/09 00:46:41;;;;;;;47.17;13.60;;;;;;;-14.42;87.66;102172.13;4258375;28;20280;-70
2024/01/09 00:49:07;;;;;;;55.83;13.37;;;;;;;-14.39;88.04;102165.34;4258112;28;20424;-70
2024/01/09 00:51:34;;;;;;;56.40;14.00;;;;;;;-14.34;87.79;102168.06;4259605;28;22308;-71
2024/01/09 00:54:00;;;;;;;53.70;14.60;;;;;;;-14.42;87.32;102159.13;4262394;28;20264;-69
2024/01/09 00:56:28;;;;;;;42.60;13.40;;;;;;;-14.41;87.40;102168.69;4264166;28;20292;-69
2024/01/09 00:58:55;;;;;;;46.60;12.97;;;;;;;-14.48;87.41;102174.50;4258048;28;20363;-70
2024/01/09 01:01:21;;;;;;;48.03;13.67;;;;;;;-14.51;87.55;102168.41;4274187;28;21603;-71
2024/01/09 01:03:48;;;;;;;50.57;13.73;;;;;;;-14.47;88.01;102173.69;4258820;28;21584;-71
2024/01/09 01:06:14;;;;;;;55.37;14.37;;;;;;;-14.37;87.28;102155.84;4236095;28;20239;-70
2024/01/09 01:08:41;;;;;;;59.07;13.33;;;;;;;-14.32;87.04;102171.63;4246351;28;20237;-68
2024/01/09 01:11:08;;;;;;;42.07;12.27;;;;;;;-14.27;87.49;102163.97;4264237;28;20452;-70
2024/01/09 01:13:35;;;;;;;47.97;12.97;;;;;;;-14.27;86.98;102166.56;4249033;28;21459;-71
2024/01/09 01:16:01;;;;;;;48.50;12.70;;;;;;;-14.30;86.98;102167.38;4260538;28;20322;-70
2024/01/09 01:18:28;;;;;;;52.67;15.20;;;;;;;-14.30;86.50;102169.97;4253386;28;20236;-70
2024/01/09 01:20:55;;;;;;;46.67;13.93;;;;;;;-14.29;86.91;102176.94;4257849;28;20311;-66
2024/01/09 01:23:21;;;;;;;48.63;13.37;;;;;;;-14.30;87.24;102172.56;4263570;28;22167;-70
2024/01/09 01:25:48;;;;;;;53.93;13.90;;;;;;;-14.36;86.94;102173.22;4259939;28;20294;-70
2024/01/09 01:28:14;;;;;;;50.37;13.50;;;;;;;-14.29;86.93;102186.44;4258845;28;21631;-70
2024/01/09 01:30:41;;;;;;;55.37;15.67;;;;;;;-14.30;86.65;102180.38;4256911;28;22471;-69
2024/01/09 01:33:08;;;;;;;48.40;13.83;;;;;;;-14.30;86.62;102184.66;4264324;28;20655;-69
2024/01/09 01:35:34;;;;;;;50.20;14.47;;;;;;;-14.30;87.06;102187.28;4252061;28;21370;-70
2024/01/09 01:38:01;;;;;;;48.63;14.13;;;;;;;-14.35;86.89;102187.13;4262429;28;20819;-71
2024/01/09 01:40:28;;;;;;;55.13;12.97;;;;;;;-14.45;86.89;102178.09;4247361;28;20294;-70
2024/01/09 01:42:57;;;;;;;52.47;12.97;;;;;;;-14.54;87.04;102185.59;4260456;28;20230;-69
2024/01/09 01:45:27;;;;;;;51.23;13.90;;;;;;;-14.58;87.71;102183.72;4254294;28;20232;-72
2024/01/09 01:47:54;;;;;;;47.03;12.47;;;;;;;-14.38;87.21;102179.22;4256960;28;20776;-70
2024/01/09 01:50:22;;;;;;;46.23;15.20;;;;;;;-14.50;87.72;102185.75;4259232;28;20233;-69
2024/01/09 01:52:50;;;;;;;54.20;14.17;;;;;;;-14.52;87.63;102189.13;4273014;28;21623;-69
2024/01/09 01:55:20;;;;;;;35.43;12.80;;;;;;;-14.50;87.65;102193.53;4257333;28;20284;-71
2024/01/09 01:57:49;;;;;;;48.93;14.13;;;;;;;-14.43;87.29;102186.84;4261456;28;20295;-69
2024/01/09 02:00:18;;;;;;;59.90;14.07;;;;;;;-14.52;87.67;102194.31;4264736;28;20222;-70
2024/01/09 02:02:46;;;;;;;40.10;12.77;;;;;;;-14.61;88.13;102189.69;4248861;28;20334;-70
2024/01/09 02:05:13;;;;;;;50.33;14.10;;;;;;;-14.53;88.34;102197.75;4257430;28;20225;-71
2024/01/09 02:07:51;;;;;;;49.20;14.03;;;;;;;-14.43;88.04;102199.00;4256217;28;21329;-71
2024/01/09 02:10:19;;;;;;;47.67;12.50;;;;;;;-14.35;88.25;102194.94;4257419;28;23016;-71
2024/01/09 02:12:46;;;;;;;50.33;13.20;;;;;;;-14.46;87.48;102199.75;4260889;28;21924;-70
2024/01/09 02:15:12;;;;;;;49.60;11.80;;;;;;;-14.29;87.66;102197.75;4253797;28;20976;-69
2024/01/09 02:17:39;;;;;;;46.97;13.00;;;;;;;-14.19;86.78;102197.22;4254052;28;20288;-70
2024/01/09 02:20:07;;;;;;;55.77;15.20;;;;;;;-14.24;86.78;102205.72;4264369;28;22306;-69
2024/01/09 02:22:33;;;;;;;53.30;14.17;;;;;;;-14.37;87.08;102197.47;4258927;28;20301;-69
2024/01/09 02:25:01;;;;;;;44.67;12.47;;;;;;;-14.29;87.33;102195.16;4259574;28;20230;-70
2024/01/09 02:27:45;;;;;;;51.13;14.27;;;;;;;-14.34;87.47;102201.88;4264098;28;20337;-69
2024/01/09 02:30:12;;;;;;;44.00;13.30;;;;;;;-14.40;87.03;102199.06;4254943;28;20332;-71
2024/01/09 02:32:39;;;;;;;64.17;13.43;;;;;;;-14.38;87.33;102203.50;4259815;28;20260;-70
2024/01/09 02:35:06;;;;;;;45.57;13.27;;;;;;;-14.43;87.56;102201.59;4256830;28;20229;-68
2024/01/09 02:37:32;;;;;;;54.40;14.07;;;;;;;-14.52;88.02;102205.63;4291410;28;21635;-70
2024/01/09 02:40:00;;;;;;;47.03;13.63;;;;;;;-14.47;88.01;102199.69;4261619;28;20273;-70
2024/01/09 02:42:27;;;;;;;45.23;13.37;;;;;;;-14.40;87.98;102207.78;4257095;28;21118;-69
2024/01/09 02:44:54;;;;;;;45.20;12.80;;;;;;;-14.43;87.66;102201.59;4264700;28;20747;-69
2024/01/09 02:47:21;;;;;;;57.03;13.63;;;;;;;-14.41;87.54;102205.09;4262890;28;20680;-68
2024/01/09 02:49:48;;;;;;;47.67;12.50;;;;;;;-14.46;88.19;102204.06;4262558;28;20643;-70
2024/01/09 02:52:15;;;;;;;59.37;13.73;;;;;;;-14.37;87.57;102201.81;4261103;28;23161;-69
2024/01/09 02:54:42;;;;;;;45.60;13.30;;;;;;;-14.45;88.08;102198.91;4251710;28;20225;-68
2024/01/09 02:57:10;;;;;;;45.33;13.53;;;;;;;-14.42;87.31;102196.44;4263791;28;20330;-71
2024/01/09 02:59:38;;;;;;;43.30;13.00;;;;;;;-14.53;87.78;102196.06;4263488;28;21146;-69
2024/01/09 03:02:05;;;;;;;48.60;14.53;;;;;;;-14.51;88.24;102203.91;4262668;28;20330;-70
2024/01/09 03:04:32;;;;;;;46.97;12.83;;;;;;;-14.60;88.21;102193.16;4255739;28;20253;-69
2024/01/09 03:06:58;;;;;;;51.60;12.80;;;;;;;-14.60;88.64;102198.38;4282528;28;20308;-68
2024/01/09 03:09:25;;;;;;;44.70;11.80;;;;;;;-14.61;88.22;102197.50;4262693;28;20267;-70
2024/01/09 03:11:53;;;;;;;51.67;14.47;;;;;;;-14.60;88.44;102200.97;4270096;28;22102;-69
2024/01/09 03:14:20;;;;;;;62.97;14.23;;;;;;;-14.54;88.20;102206.41;4258428;28;21854;-70
2024/01/09 03:16:48;;;;;;;57.67;15.87;;;;;;;-14.54;88.24;102191.69;4262510;28;20497;-69
2024/01/09 03:19:15;;;;;;;48.70;13.87;;;;;;;-14.53;88.53;102200.34;4263259;28;20629;-69
2024/01/09 03:21:42;;;;;;;58.80;14.07;;;;;;;-14.60;88.35;102199.28;4249900;28;21732;-68
2024/01/09 03:24:09;;;;;;;59.87;14.93;;;;;;;-14.66;88.36;102207.75;4264193;28;20233;-69
2024/01/09 03:26:35;;;;;;;71.80;15.23;;;;;;;-14.53;87.82;102208.16;4261628;28;20236;-70
2024/01/09 03:29:04;;;;;;;63.10;15.50;;;;;;;-14.72;87.64;102207.53;4276847;28;21689;-70
2024/01/09 03:31:31;;;;;;;61.10;15.63;;;;;;;-14.67;87.92;102210.31;4258238;28;20237;-72
2024/01/09 03:33:58;;;;;;;63.00;16.57;;;;;;;-14.84;88.55;102214.91;4272165;28;20306;-70
2024/01/09 03:36:25;;;;;;;63.50;16.50;;;;;;;-14.87;88.83;102209.56;4242633;28;20242;-69
2024/01/09 03:38:52;;;;;;;68.03;16.63;;;;;;;-14.79;88.50;102215.94;4259208;28;20588;-70
2024/01/09 03:41:19;;;;;;;71.57;17.07;;;;;;;-14.82;88.67;102206.31;4258232;28;21109;-69
2024/01/09 03:43:45;;;;;;;63.70;16.63;;;;;;;-14.78;88.86;102215.13;4259172;28;21093;-67
2024/01/09 03:46:12;;;;;;;56.10;14.63;;;;;;;-14.78;88.70;102214.22;4262555;28;21147;-69
2024/01/09 03:48:38;;;;;;;59.97;15.30;;;;;;;-14.85;88.58;102213.13;4260378;28;20270;-69
2024/01/09 03:51:05;;;;;;;55.13;15.67;;;;;;;-14.80;89.01;102211.56;4256208;28;25024;-68
2024/01/09 03:53:32;;;;;;;67.73;17.07;;;;;;;-14.94;88.92;102205.84;4258224;28;20260;-70
2024/01/09 03:55:58;;;;;;;57.93;15.07;;;;;;;-14.95;89.18;102205.81;4252691;28;20280;-70
2024/01/09 03:58:25;;;;;;;53.27;15.77;;;;;;;-14.84;88.78;102207.97;4258651;28;20344;-71
2024/01/09 04:00:52;;;;;;;62.43;17.87;;;;;;;-14.88;88.62;102197.41;4255630;28;20245;-70
2024/01/09 04:03:18;;;;;;;56.00;17.07;;;;;;;-14.96;88.91;102204.94;4263149;28;20233;-69
2024/01/09 04:05:45;;;;;;;73.83;19.73;;;;;;;-15.05;89.22;102212.38;4258751;28;20233;-70
2024/01/09 04:08:14;;;;;;;98.83;24.03;;;;;;;-14.96;89.13;102214.41;4254750;28;26852;-70
2024/01/09 04:10:41;;;;;;;85.07;21.30;;;;;;;-15.08;89.37;102204.44;4259863;28;20242;-69
2024/01/09 04:13:07;;;;;;;78.93;21.87;;;;;;;-15.26;89.81;102205.53;4260334;28;20236;-69
2024/01/09 04:15:34;;;;;;;71.27;19.03;;;;;;;-15.33;90.79;102209.59;4261537;28;20283;-72
2024/01/09 04:18:01;;;;;;;67.37;17.30;;;;;;;-15.27;90.75;102195.06;4273094;28;20284;-70
2024/01/09 04:20:28;;;;;;;68.80;19.57;;;;;;;-15.14;90.70;102210.28;4266338;28;20234;-70
2024/01/09 04:22:55;;;;;;;66.33;17.43;;;;;;;-15.11;90.72;102210.41;4278310;28;20237;-67
2024/01/09 04:25:21;;;;;;;79.40;19.30;;;;;;;-15.07;90.52;102208.81;4264877;28;20415;-69
2024/01/09 04:27:48;;;;;;;71.60;18.87;;;;;;;-15.04;90.98;102209.81;4258304;28;20319;-68
2024/01/09 04:30:14;;;;;;;87.17;20.33;;;;;;;-15.04;91.37;102208.94;4255989;28;20796;-69
2024/01/09 04:32:41;;;;;;;74.20;17.93;;;;;;;-15.06;91.18;102195.88;4255821;28;21081;-68
2024/01/09 04:35:08;;;;;;;73.90;18.87;;;;;;;-14.86;90.80;102208.75;4259857;28;20249;-71
2024/01/09 04:37:34;;;;;;;82.10;20.23;;;;;;;-14.90;90.47;102193.84;4261945;28;21720;-70
2024/01/09 04:40:01;;;;;;;76.10;21.17;;;;;;;-14.94;91.26;102197.19;4257295;28;20419;-71
2024/01/09 04:42:27;;;;;;;87.27;22.13;;;;;;;-14.93;91.52;102191.16;4256685;28;20233;-69
2024/01/09 04:44:55;;;;;;;70.30;20.53;;;;;;;-14.84;91.34;102194.09;4262831;28;23151;-68
2024/01/09 04:47:22;;;;;;;86.73;22.00;;;;;;;-14.73;91.28;102189.31;4257582;28;20383;-68
2024/01/09 04:49:49;;;;;;;84.43;22.70;;;;;;;-14.62;90.54;102190.53;4261176;28;21415;-71
2024/01/09 04:52:15;;;;;;;82.23;22.03;;;;;;;-14.63;90.65;102193.06;4278200;28;20283;-68
2024/01/09 04:54:42;;;;;;;91.17;24.73;;;;;;;-14.57;90.42;102191.56;4249837;28;20310;-70
2024/01/09 04:57:09;;;;;;;79.70;20.83;;;;;;;-14.54;90.79;102201.22;4254672;28;22245;-69
2024/01/09 04:59:35;;;;;;;78.70;19.93;;;;;;;-14.66;90.29;102188.69;4260658;28;20238;-69
2024/01/09 05:02:02;;;;;;;82.07;21.67;;;;;;;-14.66;90.80;102196.50;4263572;28;20237;-70
2024/01/09 05:04:29;;;;;;;79.80;22.07;;;;;;;-14.66;90.93;102206.88;4259297;28;20225;-68
2024/01/09 05:06:56;;;;;;;75.77;22.07;;;;;;;-14.68;91.29;102198.13;4259888;28;20229;-69
2024/01/09 05:09:24;;;;;;;83.40;22.13;;;;;;;-14.63;90.69;102198.28;4258670;28;20260;-68
2024/01/09 05:11:50;;;;;;;92.00;21.67;;;;;;;-14.58;90.52;102199.31;4265423;28;20256;-69
2024/01/09 05:14:17;;;;;;;66.73;19.03;;;;;;;-14.50;90.59;102205.69;4258094;28;20229;-70
2024/01/09 05:16:44;;;;;;;89.53;22.20;;;;;;;-14.62;91.15;102197.44;4260946;28;20221;-69
2024/01/09 05:19:10;;;;;;;73.80;20.43;;;;;;;-14.51;91.53;102201.31;4260976;28;20285;-71
2024/01/09 05:21:37;;;;;;;74.47;19.87;;;;;;;-14.56;90.63;102195.94;4262178;28;21803;-69
2024/01/09 05:24:04;;;;;;;67.40;17.60;;;;;;;-14.45;91.02;102205.84;4256972;28;21474;-72
2024/01/09 05:26:30;;;;;;;76.67;19.80;;;;;;;-14.55;90.95;102199.44;4262766;28;20334;-68
2024/01/09 05:28:57;;;;;;;77.30;20.53;;;;;;;-14.52;91.72;102207.31;4259190;28;20302;-70
2024/01/09 05:31:24;;;;;;;72.97;21.00;;;;;;;-14.45;91.35;102196.31;4261452;28;20235;-69
2024/01/09 05:33:53;;;;;;;78.97;21.87;;;;;;;-14.44;91.08;102216.28;4241658;28;20238;-69
2024/01/09 05:36:22;;;;;;;78.47;22.37;;;;;;;-14.51;91.46;102214.31;4257661;28;21913;-70
2024/01/09 05:38:51;;;;;;;81.23;22.07;;;;;;;-14.66;91.65;102215.56;4257820;28;20226;-69
2024/01/09 05:41:21;;;;;;;66.07;20.07;;;;;;;-14.70;91.87;102203.28;4263131;28;20229;-70
2024/01/09 05:43:49;;;;;;;81.80;22.30;;;;;;;-14.67;92.26;102205.97;4257732;28;20466;-70
2024/01/09 05:46:15;;;;;;;73.60;20.97;;;;;;;-14.71;92.50;102206.72;4261310;28;25609;-70
2024/01/09 05:48:42;;;;;;;85.10;23.80;;;;;;;-14.78;92.88;102204.72;4256975;28;20454;-70
2024/01/09 05:51:10;;;;;;;79.53;19.73;;;;;;;-14.77;93.03;102205.59;4258654;28;20287;-70
2024/01/09 05:53:37;;;;;;;77.00;20.37;;;;;;;-14.64;93.01;102204.31;4252335;28;21700;-68
2024/01/09 05:56:05;;;;;;;77.10;21.03;;;;;;;-14.62;92.48;102210.44;4265592;28;20233;-70
2024/01/09 05:58:35;;;;;;;83.47;23.67;;;;;;;-14.51;92.33;102211.69;4260712;28;21551;-70
2024/01/09 06:01:02;;;;;;;81.87;22.00;;;;;;;-14.62;92.59;102198.31;4253507;28;20471;-70
2024/01/09 06:03:29;;;;;;;74.00;21.93;;;;;;;-14.50;91.90;102216.06;4259390;28;20370;-68
2024/01/09 06:05:56;;;;;;;84.43;21.17;;;;;;;-14.43;92.41;102212.00;4264526;28;20306;-68
2024/01/09 06:08:23;;;;;;;79.37;22.03;;;;;;;-14.52;92.26;102216.03;4264598;28;20236;-70
2024/01/09 06:10:49;;;;;;;75.27;22.57;;;;;;;-14.60;92.68;102222.66;4264869;28;20245;-70
2024/01/09 06:13:16;;;;;;;98.80;23.33;;;;;;;-14.55;93.02;102225.44;4260558;28;23330;-69
2024/01/09 06:15:43;;;;;;;77.17;21.03;;;;;;;-14.61;93.29;102217.41;4263950;28;21758;-70
2024/01/09 06:18:10;;;;;;;73.07;21.00;;;;;;;-14.53;93.42;102226.34;4267509;28;20235;-70
2024/01/09 06:20:37;;;;;;;86.57;22.00;;;;;;;-14.50;93.13;102227.34;4248716;28;20297;-69
2024/01/09 06:23:03;;;;;;;76.60;20.83;;;;;;;-14.51;93.12;102227.31;4278275;28;20282;-69
2024/01/09 06:25:31;;;;;;;85.00;23.23;;;;;;;-14.50;92.96;102239.47;4250365;28;20233;-71
2024/01/09 06:27:57;;;;;;;77.70;21.70;;;;;;;-14.53;92.89;102236.75;4258244;28;20930;-73
2024/01/09 06:30:24;;;;;;;77.17;19.70;;;;;;;-14.56;93.45;102245.34;4264650;28;21309;-70
2024/01/09 06:32:51;;;;;;;70.67;19.80;;;;;;;-14.59;93.96;102241.75;4259951;28;20244;-72
2024/01/09 06:35:18;;;;;;;89.67;22.57;;;;;;;-14.54;93.46;102248.88;4272743;28;21342;-71
2024/01/09 06:37:45;;;;;;;76.77;21.93;;;;;;;-14.52;93.78;102246.34;4267327;28;21717;-72
2024/01/09 06:40:11;;;;;;;76.87;20.03;;;;;;;-14.52;93.76;102238.53;4267161;28;20226;-71
2024/01/09 06:42:39;;;;;;;80.93;21.97;;;;;;;-14.41;93.65;102242.41;4266346;28;20317;-72
2024/01/09 06:45:06;;;;;;;86.17;23.43;;;;;;;-14.43;93.44;102249.28;4298322;28;20965;-71
2024/01/09 06:47:34;;;;;;;88.40;24.97;;;;;;;-14.53;93.63;102235.06;4279556;28;20242;-70
2024/01/09 06:50:02;;;;;;;84.40;22.60;;;;;;;-14.42;93.91;102240.66;4261510;28;20233;-70
2024/01/09 06:52:33;;;;;;;85.43;23.87;;;;;;;-14.44;93.49;102229.28;4241402;28;21947;-72
2024/01/09 06:54:59;;;;;;;92.60;25.60;;;;;;;-14.23;92.76;102242.19;4264003;28;20238;-72
2024/01/09 06:57:26;;;;;;;92.53;24.50;;;;;;;-14.35;93.05;102246.97;4255273;28;20411;-67
2024/01/09 06:59:52;;;;;;;77.07;24.80;;;;;;;-14.36;93.02;102253.00;4244135;28;20233;-72
2024/01/09 07:02:21;;;;;;;91.23;24.43;;;;;;;-14.38;93.09;102259.84;4261650;28;20234;-74
2024/01/09 07:04:47;;;;;;;92.73;25.33;;;;;;;-14.43;92.89;102254.47;4265277;28;21156;-71
2024/01/09 07:07:14;;;;;;;87.67;22.47;;;;;;;-14.31;92.96;102256.63;4265331;28;20548;-72
2024/01/09 07:09:41;;;;;;;89.50;22.70;;;;;;;-14.29;92.51;102268.00;4229961;28;20234;-72
2024/01/09 07:12:09;;;;;;;87.50;24.30;;;;;;;-14.27;92.05;102270.63;4258268;28;22686;-70
2024/01/09 07:14:36;;;;;;;90.00;25.23;;;;;;;-14.28;92.49;102264.56;4281532;28;21662;-72
2024/01/09 07:17:07;;;;;;;84.77;23.70;;;;;;;-14.27;92.72;102265.44;4267969;28;20980;-71
2024/01/09 07:19:34;;;;;;;90.07;25.63;;;;;;;-14.27;91.84;102271.50;4265007;28;20233;-70
2024/01/09 07:22:01;;;;;;;82.03;25.23;;;;;;;-14.27;92.27;102265.44;4237807;28;21373;-72
2024/01/09 07:24:28;;;;;;;97.13;26.50;;;;;;;-14.19;92.28;102272.66;4262155;28;20645;-71
2024/01/09 07:26:55;;;;;;;103.47;27.33;;;;;;;-14.19;91.80;102269.19;4252506;28;21471;-69
2024/01/09 07:29:21;;;;;;;76.57;23.87;;;;;;;-14.21;92.29;102271.75;4260309;28;24328;-70
2024/01/09 07:31:48;;;;;;;84.67;24.07;;;;;;;-14.22;92.24;102269.06;4273572;28;20276;-71
2024/01/09 07:34:15;;;;;;;98.57;25.63;;;;;;;-14.07;92.27;102279.16;4259338;28;20225;-68
2024/01/09 07:36:44;;;;;;;87.27;24.07;;;;;;;-14.02;92.19;102277.59;4252377;28;20229;-68
2024/01/09 07:39:11;;;;;;;104.07;26.73;;;;;;;-13.93;91.95;102277.03;4273511;28;20256;-69
2024/01/09 07:41:38;;;;;;;94.00;25.40;;;;;;;-13.88;91.05;102278.94;4260247;28;20817;-71
2024/01/09 07:44:04;;;;;;;88.83;24.43;;;;;;;-13.79;90.92;102280.09;4261814;28;20230;-72
2024/01/09 07:46:31;;;;;;;92.60;25.17;;;;;;;-13.76;90.98;102277.63;4262115;28;20467;-69
2024/01/09 07:48:58;;;;;;;100.83;25.13;;;;;;;-13.71;90.92;102276.03;4264077;28;20255;-69
2024/01/09 07:51:25;;;;;;;84.97;24.60;;;;;;;-13.72;90.58;102282.97;4258166;28;20613;-71
2024/01/09 07:53:51;;;;;;;96.33;22.80;;;;;;;-13.69;90.60;102287.41;4254926;28;20245;-70
2024/01/09 07:56:19;;;;;;;93.80;23.83;;;;;;;-13.47;90.70;102299.41;4275725;28;21092;-71
2024/01/09 07:58:46;;;;;;;87.63;25.20;;;;;;;-13.42;89.42;102296.94;4255183;28;20221;-71
2024/01/09 08:01:12;;;;;;;115.95;33.92;;;;;;;-13.28;89.64;102285.22;4260273;28;20844;-73
2024/01/09 08:03:43;;;;;;;89.83;25.87;;;;;;;-13.32;89.59;102285.97;4256070;28;20340;-75
2024/01/09 08:06:16;;;;;;;81.63;23.93;;;;;;;-13.15;89.02;102285.63;4273018;28;22098;-70
2024/01/09 08:08:43;;;;;;;106.93;27.17;;;;;;;-13.11;88.61;102291.00;4257001;28;22496;-74
2024/01/09 08:11:16;;;;;;;70.67;23.10;;;;;;;-13.12;88.22;102294.44;4270375;28;20314;-72
2024/01/09 08:13:43;;;;;;;96.27;27.17;;;;;;;-13.26;88.65;102290.50;4276551;28;20600;-72
2024/01/09 08:16:09;;;;;;;98.27;28.37;;;;;;;-13.32;88.40;102298.09;4261082;28;20603;-73
2024/01/09 08:18:37;;;;;;;100.27;27.13;;;;;;;-13.26;88.54;102288.78;4272799;28;22030;-72
2024/01/09 08:21:05;;;;;;;90.97;26.60;;;;;;;-13.03;89.09;102292.94;4290294;28;20599;-72
2024/01/09 08:23:32;;;;;;;108.53;29.57;;;;;;;-13.06;88.78;102301.53;4285818;28;20612;-72
2024/01/09 08:25:59;;;;;;;107.53;30.23;;;;;;;-13.03;88.42;102298.16;4261856;28;20267;-70
2024/01/09 08:28:26;;;;;;;86.30;23.97;;;;;;;-12.85;88.53;102297.84;4265762;28;20278;-71
2024/01/09 08:30:53;;;;;;;101.33;27.80;;;;;;;-12.68;87.36;102303.56;4273503;28;21137;-69
2024/01/09 08:33:20;;;;;;;91.67;27.47;;;;;;;-12.76;87.49;102291.19;4266707;28;23076;-69
2024/01/09 08:35:52;;;;;;;113.40;32.47;;;;;;;-12.67;87.63;102297.50;4292989;28;20412;-60
2024/01/09 08:38:19;;;;;;;116.72;36.25;;;;;;;-12.38;86.92;102302.69;4277201;28;21528;-75
2024/01/09 08:40:45;;;;;;;99.10;27.57;;;;;;;-12.44;86.58;102301.69;4255300;28;20313;-74
2024/01/09 08:43:15;;;;;;;116.00;32.63;;;;;;;-12.14;85.17;102297.28;4281517;28;20858;-75
2024/01/09 08:45:43;;;;;;;83.43;26.23;;;;;;;-11.61;83.35;102294.31;4339646;28;20472;-72
2024/01/09 08:48:10;;;;;;;88.17;25.70;;;;;;;-9.69;78.34;102295.78;4335656;28;20226;-77
2024/01/09 08:50:37;;;;;;;93.70;27.10;;;;;;;-9.16;70.19;102281.81;4357623;28;20245;-74
2024/01/09 08:53:04;;;;;;;90.07;25.50;;;;;;;-8.06;66.95;102298.09;4323341;28;20850;-73
2024/01/09 08:55:31;;;;;;;85.00;21.67;;;;;;;-7.10;63.08;102291.97;4300824;28;21650;-76
2024/01/09 08:57:58;;;;;;;76.63;22.33;;;;;;;-5.98;59.79;102303.06;4359226;28;20309;-75
2024/01/09 09:00:25;;;;;;;76.30;23.07;;;;;;;-3.85;55.44;102291.31;4278040;28;20547;-77
2024/01/09 09:02:52;;;;;;;93.10;26.20;;;;;;;-1.98;50.09;102300.13;4318096;28;20231;-77
2024/01/09 09:05:20;;;;;;;79.67;26.93;;;;;;;-2.11;50.37;102304.69;4304635;28;20238;-72
2024/01/09 09:07:47;;;;;;;82.00;25.97;;;;;;;-2.82;50.66;102300.22;4333288;28;20956;-81
2024/01/09 09:10:14;;;;;;;96.73;27.90;;;;;;;0.58;42.91;102288.25;4274903;28;20248;-77
2024/01/09 09:12:41;;;;;;;92.67;29.30;;;;;;;1.59;39.60;102280.28;4276795;28;20242;-72
2024/01/09 09:15:08;;;;;;;91.87;29.87;;;;;;;0.96;37.17;102282.91;4276595;28;21282;-77
2024/01/09 09:17:35;;;;;;;100.50;30.50;;;;;;;-2.52;43.23;102276.03;4279415;28;20651;-71
2024/01/09 09:20:05;;;;;;;91.93;32.60;;;;;;;-3.21;45.14;102287.31;4335055;28;20997;-79
2024/01/09 09:22:33;;;;;;;78.93;29.07;;;;;;;-2.50;46.34;102272.50;4279838;28;20226;-77
2024/01/09 09:25:00;;;;;;;90.50;29.13;;;;;;;-2.12;44.56;102284.41;4301096;28;21418;-77
2024/01/09 09:27:27;;;;;;;79.63;27.47;;;;;;;-2.90;45.62;102280.88;4270797;28;20238;-76
2024/01/09 09:29:53;;;;;;;90.57;28.60;;;;;;;-3.83;47.21;102277.19;4288764;28;21807;-77
2024/01/09 09:32:20;;;;;;;79.67;26.23;;;;;;;-4.69;49.44;102290.78;4292762;28;20878;-76
2024/01/09 09:34:47;;;;;;;79.77;25.17;;;;;;;-6.14;52.76;102295.13;4242700;28;21124;-77
2024/01/09 09:37:17;;;;;;;74.80;25.60;;;;;;;-5.16;51.63;102292.63;4272530;28;20490;-73
2024/01/09 09:39:44;;;;;;;69.93;22.20;;;;;;;-5.20;50.86;102288.19;4281497;28;20296;-71
2024/01/09 09:42:11;;;;;;;72.43;24.70;;;;;;;-4.76;51.54;102292.56;4284726;28;22025;-73
2024/01/09 09:44:38;;;;;;;82.33;24.50;;;;;;;-5.42;52.31;102280.28;4262405;28;20373;-72
2024/01/09 09:47:08;;;;;;;73.57;23.10;;;;;;;-4.09;50.25;102293.22;4283043;28;20637;-71
2024/01/09 09:49:38;;;;;;;70.40;22.33;;;;;;;-4.95;50.35;102289.94;4282839;28;20224;-71
2024/01/09 09:52:05;;;;;;;83.97;24.90;;;;;;;-4.64;50.30;102291.63;4271780;28;20245;-73
2024/01/09 09:54:34;;;;;;;77.47;24.63;;;;;;;-3.35;49.11;102275.97;4290956;28;22066;-74
2024/01/09 09:57:01;;;;;;;86.77;25.77;;;;;;;-3.09;47.51;102278.38;4291984;28;20364;-74
2024/01/09 09:59:27;;;;;;;78.23;25.50;;;;;;;-1.45;45.16;102281.66;4279193;28;20301;-73
2024/01/09 10:01:56;;;;;;;81.07;25.83;;;;;;;-3.95;48.97;102273.75;4284955;28;20340;-77
2024/01/09 10:04:41;;;;;;;89.17;27.57;;;;;;;-4.07;48.88;102282.63;4297002;28;20827;-75
2024/01/09 10:07:08;;;;;;;81.00;25.53;;;;;;;-0.40;43.20;102268.22;4295800;28;20229;-75
2024/01/09 10:09:39;;;;;;;91.67;28.17;;;;;;;-3.18;47.16;102267.91;4260438;28;20233;-73
2024/01/09 10:12:06;;;;;;;95.97;27.87;;;;;;;-3.03;46.57;102267.75;4293330;28;20419;-72
2024/01/09 10:14:33;;;;;;;80.13;25.20;;;;;;;-3.83;47.71;102256.03;4290415;28;20228;-74
2024/01/09 10:17:03;;;;;;;73.97;23.50;;;;;;;-2.19;45.97;102253.50;4312323;28;20790;-72
2024/01/09 10:19:30;;;;;;;81.93;24.77;;;;;;;-2.64;46.39;102262.03;4287344;28;20228;-71
2024/01/09 10:21:57;;;;;;;74.13;24.67;;;;;;;-3.08;47.07;102263.38;4311403;28;20248;-71
2024/01/09 10:24:24;;;;;;;81.40;23.00;;;;;;;-2.11;46.53;102259.59;4316305;28;20423;-73
2024/01/09 10:26:54;;;;;;;79.70;24.90;;;;;;;-1.69;44.25;102260.78;4291277;28;20226;-74
2024/01/09 10:29:22;;;;;;;72.87;23.43;;;;;;;-0.95;43.97;102251.56;4257225;28;20235;-77
2024/01/09 10:31:49;;;;;;;82.60;23.53;;;;;;;-3.21;46.84;102266.13;4292679;28;21260;-74
2024/01/09 10:34:15;;;;;;;71.73;23.80;;;;;;;-2.25;46.58;102261.56;4319208;28;21509;-74
2024/01/09 10:36:42;;;;;;;81.73;25.87;;;;;;;-0.85;42.53;102262.91;4267496;28;20238;-72
2024/01/09 10:39:11;;;;;;;96.27;25.53;;;;;;;0.71;40.39;102256.84;4242157;28;20236;-75
2024/01/09 10:41:39;;;;;;;84.70;25.80;;;;;;;1.12;39.46;102253.16;4287060;28;20225;-75
2024/01/09 10:44:07;;;;;;;82.90;26.37;;;;;;;1.48;37.66;102234.38;4269737;28;22396;-72
2024/01/09 10:46:36;;;;;;;91.00;26.87;;;;;;;-2.18;44.58;102249.09;4276566;28;21168;-73
2024/01/09 10:49:05;;;;;;;88.03;26.73;;;;;;;-1.89;43.90;102251.34;4282137;28;20422;-75
2024/01/09 10:51:33;;;;;;;78.30;25.37;;;;;;;-1.13;44.07;102251.00;4305298;28;21802;-76
2024/01/09 10:54:03;;;;;;;91.30;25.47;;;;;;;-1.30;44.05;102247.78;4294735;28;23366;-74
2024/01/09 10:56:30;;;;;;;78.10;25.73;;;;;;;-0.06;41.05;102235.59;4293996;28;20305;-74
2024/01/09 10:58:57;;;;;;;81.10;25.23;;;;;;;-2.48;44.64;102241.50;4269622;28;22627;-73
2024/01/09 11:01:25;;;;;;;75.37;23.40;;;;;;;-3.86;47.92;102239.28;4295670;28;21891;-75